sensor_id;sensor_type;location;lat;lon;timestamp;P1;durP1;ratioP1;P2;durP2;ratioP2
21420;SDS011;10871;50.144;8.428;2023-02-20T00:01:26;13.73;;;8.63;;
21420;SDS011;10871;50.144;8.428;2023-02-20T00:03:53;13.98;;;8.98;;
21420;SDS011;10871;50.144;8.428;2023-02-20T00:06:20;14.30;;;9.40;;
21420;SDS011;10871;50.144;8.428;2023-02-20T00:08:47;13.70;;;9.75;;
21420;SDS011;10871;50.144;8.428;2023-02-20T00:11:14;13.20;;;9.70;;
21420;SDS011;10871;50.144;8.428;2023-02-20T00:13:44;13.48;;;9.23;;
21420;SDS011;10871;50.144;8.428;2023-02-20T00:16:11;14.48;;;9.45;;
21420;SDS011;10871;50.144;8.428;2023-02-20T00:18:38;13.20;;;9.50;;
21420;SDS011;10871;50.144;8.428;2023-02-20T00:21:04;12.02;;;8.85;;
21420;SDS011;10871;50.144;8.428;2023-02-20T00:23:31;16.35;;;9.13;;
21420;SDS011;10871;50.144;8.428;2023-02-20T00:25:58;15.13;;;9.65;;
21420;SDS011;10871;50.144;8.428;2023-02-20T00:28:24;16.83;;;10.40;;
21420;SDS011;10871;50.144;8.428;2023-02-20T00:30:52;18.63;;;10.50;;
21420;SDS011;10871;50.144;8.428;2023-02-20T00:33:20;15.80;;;9.95;;
21420;SDS011;10871;50.144;8.428;2023-02-20T00:35:47;15.50;;;9.48;;
21420;SDS011;10871;50.144;8.428;2023-02-20T00:38:13;15.98;;;9.73;;
21420;SDS011;10871;50.144;8.428;2023-02-20T00:40:42;14.73;;;9.20;;
21420;SDS011;10871;50.144;8.428;2023-02-20T00:43:08;15.35;;;10.32;;
21420;SDS011;10871;50.144;8.428;2023-02-20T00:45:34;15.20;;;9.90;;
21420;SDS011;10871;50.144;8.428;2023-02-20T00:48:01;18.83;;;10.70;;
21420;SDS011;10871;50.144;8.428;2023-02-20T00:50:28;13.75;;;9.55;;
21420;SDS011;10871;50.144;8.428;2023-02-20T00:52:55;15.15;;;9.93;;
21420;SDS011;10871;50.144;8.428;2023-02-20T00:55:22;19.70;;;9.88;;
21420;SDS011;10871;50.144;8.428;2023-02-20T00:57:48;18.33;;;9.95;;
21420;SDS011;10871;50.144;8.428;2023-02-20T01:00:19;16.25;;;10.50;;
21420;SDS011;10871;50.144;8.428;2023-02-20T01:02:48;15.23;;;10.05;;
21420;SDS011;10871;50.144;8.428;2023-02-20T01:05:15;15.18;;;9.77;;
21420;SDS011;10871;50.144;8.428;2023-02-20T01:07:42;16.92;;;10.02;;
21420;SDS011;10871;50.144;8.428;2023-02-20T01:10:09;15.38;;;10.07;;
21420;SDS011;10871;50.144;8.428;2023-02-20T01:12:37;16.13;;;9.60;;
21420;SDS011;10871;50.144;8.428;2023-02-20T01:15:05;14.07;;;9.38;;
21420;SDS011;10871;50.144;8.428;2023-02-20T01:17:32;14.43;;;9.32;;
21420;SDS011;10871;50.144;8.428;2023-02-20T01:19:59;17.38;;;9.32;;
21420;SDS011;10871;50.144;8.428;2023-02-20T01:22:25;17.35;;;8.95;;
21420;SDS011;10871;50.144;8.428;2023-02-20T01:24:52;16.52;;;8.98;;
21420;SDS011;10871;50.144;8.428;2023-02-20T01:27:18;13.05;;;8.82;;
21420;SDS011;10871;50.144;8.428;2023-02-20T01:29:45;13.30;;;8.95;;
21420;SDS011;10871;50.144;8.428;2023-02-20T01:32:12;17.23;;;8.90;;
21420;SDS011;10871;50.144;8.428;2023-02-20T01:34:39;13.90;;;8.40;;
21420;SDS011;10871;50.144;8.428;2023-02-20T01:37:06;14.60;;;8.93;;
21420;SDS011;10871;50.144;8.428;2023-02-20T01:39:33;15.88;;;8.40;;
21420;SDS011;10871;50.144;8.428;2023-02-20T01:42:01;12.77;;;8.48;;
21420;SDS011;10871;50.144;8.428;2023-02-20T01:44:30;15.93;;;8.93;;
21420;SDS011;10871;50.144;8.428;2023-02-20T01:47:07;13.38;;;7.72;;
21420;SDS011;10871;50.144;8.428;2023-02-20T01:49:35;14.52;;;8.90;;
21420;SDS011;10871;50.144;8.428;2023-02-20T01:52:12;13.27;;;8.32;;
21420;SDS011;10871;50.144;8.428;2023-02-20T01:54:42;15.65;;;8.45;;
21420;SDS011;10871;50.144;8.428;2023-02-20T01:57:12;13.73;;;9.07;;
21420;SDS011;10871;50.144;8.428;2023-02-20T01:59:40;14.73;;;8.52;;
21420;SDS011;10871;50.144;8.428;2023-02-20T02:02:09;15.95;;;8.55;;
21420;SDS011;10871;50.144;8.428;2023-02-20T02:04:38;18.73;;;9.23;;
21420;SDS011;10871;50.144;8.428;2023-02-20T02:07:05;13.60;;;8.20;;
21420;SDS011;10871;50.144;8.428;2023-02-20T02:09:43;13.27;;;8.02;;
21420;SDS011;10871;50.144;8.428;2023-02-20T02:12:11;16.85;;;8.20;;
21420;SDS011;10871;50.144;8.428;2023-02-20T02:14:37;13.68;;;8.00;;
21420;SDS011;10871;50.144;8.428;2023-02-20T02:22:27;9.90;;;6.90;;
21420;SDS011;10871;50.144;8.428;2023-02-20T02:25:41;12.98;;;6.97;;
21420;SDS011;10871;50.144;8.428;2023-02-20T02:35:24;11.52;;;6.60;;
21420;SDS011;10871;50.144;8.428;2023-02-20T02:37:57;14.23;;;6.85;;
21420;SDS011;10871;50.144;8.428;2023-02-20T02:43:00;10.30;;;6.60;;
21420;SDS011;10871;50.144;8.428;2023-02-20T02:45:47;10.88;;;7.05;;
21420;SDS011;10871;50.144;8.428;2023-02-20T02:50:43;10.90;;;6.57;;
21420;SDS011;10871;50.144;8.428;2023-02-20T02:53:11;10.73;;;6.90;;
21420;SDS011;10871;50.144;8.428;2023-02-20T02:55:38;11.85;;;6.88;;
21420;SDS011;10871;50.144;8.428;2023-02-20T02:58:04;8.32;;;6.53;;
21420;SDS011;10871;50.144;8.428;2023-02-20T03:00:39;9.30;;;6.28;;
21420;SDS011;10871;50.144;8.428;2023-02-20T03:05:44;10.73;;;6.60;;
21420;SDS011;10871;50.144;8.428;2023-02-20T03:08:24;14.10;;;7.30;;
21420;SDS011;10871;50.144;8.428;2023-02-20T03:11:06;12.25;;;7.25;;
21420;SDS011;10871;50.144;8.428;2023-02-20T03:13:38;13.80;;;7.65;;
21420;SDS011;10871;50.144;8.428;2023-02-20T03:16:27;14.43;;;6.95;;
21420;SDS011;10871;50.144;8.428;2023-02-20T03:18:58;14.02;;;7.45;;
21420;SDS011;10871;50.144;8.428;2023-02-20T03:21:27;12.93;;;7.75;;
21420;SDS011;10871;50.144;8.428;2023-02-20T03:23:57;13.52;;;8.15;;
21420;SDS011;10871;50.144;8.428;2023-02-20T03:26:26;11.25;;;7.68;;
21420;SDS011;10871;50.144;8.428;2023-02-20T03:28:55;12.77;;;8.30;;
21420;SDS011;10871;50.144;8.428;2023-02-20T03:31:34;16.65;;;8.50;;
21420;SDS011;10871;50.144;8.428;2023-02-20T03:36:58;12.10;;;7.70;;
21420;SDS011;10871;50.144;8.428;2023-02-20T03:39:46;14.82;;;8.18;;
21420;SDS011;10871;50.144;8.428;2023-02-20T03:42:32;14.02;;;8.18;;
21420;SDS011;10871;50.144;8.428;2023-02-20T03:45:26;13.73;;;8.60;;
21420;SDS011;10871;50.144;8.428;2023-02-20T03:47:55;16.92;;;9.10;;
21420;SDS011;10871;50.144;8.428;2023-02-20T03:50:27;16.95;;;9.38;;
21420;SDS011;10871;50.144;8.428;2023-02-20T03:53:12;14.10;;;8.55;;
21420;SDS011;10871;50.144;8.428;2023-02-20T03:55:39;12.95;;;9.02;;
21420;SDS011;10871;50.144;8.428;2023-02-20T03:58:10;13.35;;;8.65;;
21420;SDS011;10871;50.144;8.428;2023-02-20T04:00:39;16.30;;;9.05;;
21420;SDS011;10871;50.144;8.428;2023-02-20T04:03:09;13.40;;;9.15;;
21420;SDS011;10871;50.144;8.428;2023-02-20T04:08:19;16.98;;;9.20;;
21420;SDS011;10871;50.144;8.428;2023-02-20T04:13:14;22.38;;;10.15;;
21420;SDS011;10871;50.144;8.428;2023-02-20T04:15:46;18.92;;;10.15;;
21420;SDS011;10871;50.144;8.428;2023-02-20T04:18:14;19.20;;;10.02;;
21420;SDS011;10871;50.144;8.428;2023-02-20T04:20:47;17.98;;;10.07;;
21420;SDS011;10871;50.144;8.428;2023-02-20T04:23:23;18.10;;;10.13;;
21420;SDS011;10871;50.144;8.428;2023-02-20T04:28:39;17.60;;;9.70;;
21420;SDS011;10871;50.144;8.428;2023-02-20T04:31:09;17.10;;;10.05;;
21420;SDS011;10871;50.144;8.428;2023-02-20T04:33:36;15.88;;;9.35;;
21420;SDS011;10871;50.144;8.428;2023-02-20T04:36:09;18.60;;;10.70;;
21420;SDS011;10871;50.144;8.428;2023-02-20T04:38:38;17.90;;;10.27;;
21420;SDS011;10871;50.144;8.428;2023-02-20T04:41:08;17.70;;;10.18;;
21420;SDS011;10871;50.144;8.428;2023-02-20T04:43:35;19.73;;;10.13;;
21420;SDS011;10871;50.144;8.428;2023-02-20T04:46:01;16.58;;;9.70;;
21420;SDS011;10871;50.144;8.428;2023-02-20T04:48:28;17.42;;;10.00;;
21420;SDS011;10871;50.144;8.428;2023-02-20T04:50:55;21.30;;;10.32;;
21420;SDS011;10871;50.144;8.428;2023-02-20T04:53:22;17.20;;;10.32;;
21420;SDS011;10871;50.144;8.428;2023-02-20T04:55:48;19.30;;;10.68;;
21420;SDS011;10871;50.144;8.428;2023-02-20T04:58:18;23.33;;;11.25;;
21420;SDS011;10871;50.144;8.428;2023-02-20T05:01:01;21.13;;;11.15;;
21420;SDS011;10871;50.144;8.428;2023-02-20T05:03:27;21.00;;;11.07;;
21420;SDS011;10871;50.144;8.428;2023-02-20T05:05:54;17.70;;;10.32;;
21420;SDS011;10871;50.144;8.428;2023-02-20T05:08:20;18.65;;;10.80;;
21420;SDS011;10871;50.144;8.428;2023-02-20T05:10:47;22.92;;;11.38;;
21420;SDS011;10871;50.144;8.428;2023-02-20T05:13:13;20.33;;;10.10;;
21420;SDS011;10871;50.144;8.428;2023-02-20T05:15:40;18.50;;;10.50;;
21420;SDS011;10871;50.144;8.428;2023-02-20T05:18:07;22.98;;;11.85;;
21420;SDS011;10871;50.144;8.428;2023-02-20T05:20:33;18.75;;;10.35;;
21420;SDS011;10871;50.144;8.428;2023-02-20T05:23:19;17.45;;;10.50;;
21420;SDS011;10871;50.144;8.428;2023-02-20T05:25:46;16.45;;;9.98;;
21420;SDS011;10871;50.144;8.428;2023-02-20T05:28:12;19.02;;;9.07;;
21420;SDS011;10871;50.144;8.428;2023-02-20T05:30:39;17.85;;;8.55;;
21420;SDS011;10871;50.144;8.428;2023-02-20T05:33:06;15.38;;;8.85;;
21420;SDS011;10871;50.144;8.428;2023-02-20T05:35:32;19.30;;;9.35;;
21420;SDS011;10871;50.144;8.428;2023-02-20T05:38:01;21.05;;;9.50;;
21420;SDS011;10871;50.144;8.428;2023-02-20T05:40:27;20.58;;;9.00;;
21420;SDS011;10871;50.144;8.428;2023-02-20T05:42:54;22.35;;;9.18;;
21420;SDS011;10871;50.144;8.428;2023-02-20T05:45:20;21.15;;;9.10;;
21420;SDS011;10871;50.144;8.428;2023-02-20T05:47:47;18.38;;;9.13;;
21420;SDS011;10871;50.144;8.428;2023-02-20T05:50:14;16.02;;;8.32;;
21420;SDS011;10871;50.144;8.428;2023-02-20T05:52:40;16.83;;;8.25;;
21420;SDS011;10871;50.144;8.428;2023-02-20T05:55:07;17.13;;;8.73;;
21420;SDS011;10871;50.144;8.428;2023-02-20T05:57:34;16.90;;;9.23;;
21420;SDS011;10871;50.144;8.428;2023-02-20T06:00:00;15.68;;;8.68;;
21420;SDS011;10871;50.144;8.428;2023-02-20T06:02:37;17.77;;;10.02;;
21420;SDS011;10871;50.144;8.428;2023-02-20T06:05:03;19.50;;;9.65;;
21420;SDS011;10871;50.144;8.428;2023-02-20T06:07:33;16.80;;;8.73;;
21420;SDS011;10871;50.144;8.428;2023-02-20T06:10:00;17.20;;;9.43;;
21420;SDS011;10871;50.144;8.428;2023-02-20T06:12:26;17.13;;;8.95;;
21420;SDS011;10871;50.144;8.428;2023-02-20T06:14:53;13.75;;;8.45;;
21420;SDS011;10871;50.144;8.428;2023-02-20T06:17:19;15.82;;;8.98;;
21420;SDS011;10871;50.144;8.428;2023-02-20T06:19:46;17.67;;;8.48;;
21420;SDS011;10871;50.144;8.428;2023-02-20T06:22:12;14.02;;;8.23;;
21420;SDS011;10871;50.144;8.428;2023-02-20T06:24:39;14.95;;;8.82;;
21420;SDS011;10871;50.144;8.428;2023-02-20T06:27:05;15.70;;;8.73;;
21420;SDS011;10871;50.144;8.428;2023-02-20T06:29:33;13.10;;;7.65;;
21420;SDS011;10871;50.144;8.428;2023-02-20T06:32:00;16.48;;;7.97;;
21420;SDS011;10871;50.144;8.428;2023-02-20T06:34:27;15.25;;;7.55;;
21420;SDS011;10871;50.144;8.428;2023-02-20T06:36:56;15.50;;;7.80;;
21420;SDS011;10871;50.144;8.428;2023-02-20T06:39:23;20.20;;;8.13;;
21420;SDS011;10871;50.144;8.428;2023-02-20T06:41:50;17.25;;;8.25;;
21420;SDS011;10871;50.144;8.428;2023-02-20T06:44:16;13.27;;;7.35;;
21420;SDS011;10871;50.144;8.428;2023-02-20T06:46:43;15.80;;;8.15;;
21420;SDS011;10871;50.144;8.428;2023-02-20T06:49:09;12.95;;;8.02;;
21420;SDS011;10871;50.144;8.428;2023-02-20T06:51:36;16.65;;;7.65;;
21420;SDS011;10871;50.144;8.428;2023-02-20T06:54:03;14.45;;;7.88;;
21420;SDS011;10871;50.144;8.428;2023-02-20T06:56:31;18.30;;;8.05;;
21420;SDS011;10871;50.144;8.428;2023-02-20T06:58:57;15.65;;;8.68;;
21420;SDS011;10871;50.144;8.428;2023-02-20T07:01:25;13.95;;;7.68;;
21420;SDS011;10871;50.144;8.428;2023-02-20T07:03:54;16.45;;;7.93;;
21420;SDS011;10871;50.144;8.428;2023-02-20T07:06:21;15.15;;;7.57;;
21420;SDS011;10871;50.144;8.428;2023-02-20T07:08:48;17.50;;;8.18;;
21420;SDS011;10871;50.144;8.428;2023-02-20T07:11:15;14.77;;;7.50;;
21420;SDS011;10871;50.144;8.428;2023-02-20T07:13:43;14.27;;;8.05;;
21420;SDS011;10871;50.144;8.428;2023-02-20T07:16:09;15.43;;;8.32;;
21420;SDS011;10871;50.144;8.428;2023-02-20T07:18:36;14.48;;;8.15;;
21420;SDS011;10871;50.144;8.428;2023-02-20T07:21:03;12.60;;;7.93;;
21420;SDS011;10871;50.144;8.428;2023-02-20T07:23:32;14.15;;;7.07;;
21420;SDS011;10871;50.144;8.428;2023-02-20T07:25:58;15.15;;;7.50;;
21420;SDS011;10871;50.144;8.428;2023-02-20T07:28:25;17.10;;;10.13;;
21420;SDS011;10871;50.144;8.428;2023-02-20T07:30:51;14.88;;;7.35;;
21420;SDS011;10871;50.144;8.428;2023-02-20T07:33:18;11.77;;;7.22;;
21420;SDS011;10871;50.144;8.428;2023-02-20T07:35:45;12.15;;;6.03;;
21420;SDS011;10871;50.144;8.428;2023-02-20T07:38:13;12.52;;;6.25;;
21420;SDS011;10871;50.144;8.428;2023-02-20T07:40:40;9.98;;;6.00;;
21420;SDS011;10871;50.144;8.428;2023-02-20T07:43:06;13.52;;;6.38;;
21420;SDS011;10871;50.144;8.428;2023-02-20T07:45:36;12.88;;;6.72;;
21420;SDS011;10871;50.144;8.428;2023-02-20T07:48:04;10.18;;;5.70;;
21420;SDS011;10871;50.144;8.428;2023-02-20T07:50:31;10.63;;;5.53;;
21420;SDS011;10871;50.144;8.428;2023-02-20T07:52:57;10.52;;;5.75;;
21420;SDS011;10871;50.144;8.428;2023-02-20T07:55:24;13.90;;;5.25;;
21420;SDS011;10871;50.144;8.428;2023-02-20T07:57:51;8.85;;;5.15;;
21420;SDS011;10871;50.144;8.428;2023-02-20T08:00:20;11.93;;;5.57;;
21420;SDS011;10871;50.144;8.428;2023-02-20T08:02:47;10.52;;;5.63;;
21420;SDS011;10871;50.144;8.428;2023-02-20T08:05:14;8.95;;;5.32;;
21420;SDS011;10871;50.144;8.428;2023-02-20T08:07:44;10.25;;;5.30;;
21420;SDS011;10871;50.144;8.428;2023-02-20T08:10:12;7.25;;;5.10;;
21420;SDS011;10871;50.144;8.428;2023-02-20T08:12:39;8.63;;;5.45;;
21420;SDS011;10871;50.144;8.428;2023-02-20T08:15:05;9.98;;;5.50;;
21420;SDS011;10871;50.144;8.428;2023-02-20T08:17:32;10.25;;;5.50;;
21420;SDS011;10871;50.144;8.428;2023-02-20T08:20:11;9.63;;;4.93;;
21420;SDS011;10871;50.144;8.428;2023-02-20T08:22:38;8.40;;;5.00;;
21420;SDS011;10871;50.144;8.428;2023-02-20T08:25:07;7.50;;;4.82;;
21420;SDS011;10871;50.144;8.428;2023-02-20T08:27:33;9.35;;;5.00;;
21420;SDS011;10871;50.144;8.428;2023-02-20T08:30:04;11.35;;;4.70;;
21420;SDS011;10871;50.144;8.428;2023-02-20T08:32:32;8.27;;;5.00;;
21420;SDS011;10871;50.144;8.428;2023-02-20T08:34:58;11.52;;;4.93;;
21420;SDS011;10871;50.144;8.428;2023-02-20T08:37:25;7.10;;;4.50;;
21420;SDS011;10871;50.144;8.428;2023-02-20T08:39:51;7.47;;;4.75;;
21420;SDS011;10871;50.144;8.428;2023-02-20T08:42:18;11.68;;;5.10;;
21420;SDS011;10871;50.144;8.428;2023-02-20T08:44:44;11.57;;;5.50;;
21420;SDS011;10871;50.144;8.428;2023-02-20T08:47:10;10.55;;;5.60;;
21420;SDS011;10871;50.144;8.428;2023-02-20T08:49:37;10.05;;;5.28;;
21420;SDS011;10871;50.144;8.428;2023-02-20T08:52:04;12.07;;;6.10;;
21420;SDS011;10871;50.144;8.428;2023-02-20T08:54:31;10.20;;;5.18;;
21420;SDS011;10871;50.144;8.428;2023-02-20T08:56:58;8.68;;;5.40;;
21420;SDS011;10871;50.144;8.428;2023-02-20T08:59:24;8.75;;;5.82;;
21420;SDS011;10871;50.144;8.428;2023-02-20T09:01:51;12.02;;;5.75;;
21420;SDS011;10871;50.144;8.428;2023-02-20T09:04:17;11.02;;;5.90;;
21420;SDS011;10871;50.144;8.428;2023-02-20T09:06:46;11.88;;;6.28;;
21420;SDS011;10871;50.144;8.428;2023-02-20T09:09:12;11.27;;;6.30;;
21420;SDS011;10871;50.144;8.428;2023-02-20T09:11:39;13.43;;;6.75;;
21420;SDS011;10871;50.144;8.428;2023-02-20T09:14:06;11.88;;;6.50;;
21420;SDS011;10871;50.144;8.428;2023-02-20T09:16:33;10.57;;;6.85;;
21420;SDS011;10871;50.144;8.428;2023-02-20T09:19:00;8.70;;;6.80;;
21420;SDS011;10871;50.144;8.428;2023-02-20T09:21:26;10.70;;;7.10;;
21420;SDS011;10871;50.144;8.428;2023-02-20T09:23:56;10.80;;;6.65;;
21420;SDS011;10871;50.144;8.428;2023-02-20T09:26:23;11.73;;;7.45;;
21420;SDS011;10871;50.144;8.428;2023-02-20T09:28:49;13.20;;;7.63;;
21420;SDS011;10871;50.144;8.428;2023-02-20T09:31:16;15.55;;;8.65;;
21420;SDS011;10871;50.144;8.428;2023-02-20T09:33:45;13.05;;;8.50;;
21420;SDS011;10871;50.144;8.428;2023-02-20T09:36:16;16.15;;;8.35;;
21420;SDS011;10871;50.144;8.428;2023-02-20T09:38:43;14.88;;;8.10;;
21420;SDS011;10871;50.144;8.428;2023-02-20T09:41:13;16.50;;;8.43;;
21420;SDS011;10871;50.144;8.428;2023-02-20T09:43:55;17.27;;;9.18;;
21420;SDS011;10871;50.144;8.428;2023-02-20T09:46:25;12.20;;;8.20;;
21420;SDS011;10871;50.144;8.428;2023-02-20T09:51:38;15.57;;;8.45;;
21420;SDS011;10871;50.144;8.428;2023-02-20T09:54:12;12.40;;;7.93;;
21420;SDS011;10871;50.144;8.428;2023-02-20T09:56:41;11.70;;;7.07;;
21420;SDS011;10871;50.144;8.428;2023-02-20T09:59:19;10.82;;;7.50;;
21420;SDS011;10871;50.144;8.428;2023-02-20T10:02:34;12.55;;;7.40;;
21420;SDS011;10871;50.144;8.428;2023-02-20T10:04:36;10.15;;;7.10;;
21420;SDS011;10871;50.144;8.428;2023-02-20T10:07:08;10.75;;;7.80;;
21420;SDS011;10871;50.144;8.428;2023-02-20T10:09:38;9.23;;;6.70;;
21420;SDS011;10871;50.144;8.428;2023-02-20T10:12:06;13.85;;;7.60;;
21420;SDS011;10871;50.144;8.428;2023-02-20T10:22:12;9.25;;;7.30;;
21420;SDS011;10871;50.144;8.428;2023-02-20T10:25:04;9.00;;;7.15;;
21420;SDS011;10871;50.144;8.428;2023-02-20T10:29:59;10.02;;;7.15;;
21420;SDS011;10871;50.144;8.428;2023-02-20T10:32:29;11.68;;;7.55;;
21420;SDS011;10871;50.144;8.428;2023-02-20T10:34:59;12.52;;;8.02;;
21420;SDS011;10871;50.144;8.428;2023-02-20T10:37:31;8.73;;;7.38;;
21420;SDS011;10871;50.144;8.428;2023-02-20T10:43:01;14.23;;;8.33;;
21420;SDS011;10871;50.144;8.428;2023-02-20T10:45:32;8.95;;;7.47;;
21420;SDS011;10871;50.144;8.428;2023-02-20T10:48:03;10.00;;;7.57;;
21420;SDS011;10871;50.144;8.428;2023-02-20T10:50:33;9.90;;;7.75;;
21420;SDS011;10871;50.144;8.428;2023-02-20T10:53:06;10.05;;;7.80;;
21420;SDS011;10871;50.144;8.428;2023-02-20T10:55:45;9.15;;;6.45;;
21420;SDS011;10871;50.144;8.428;2023-02-20T10:58:16;9.48;;;8.02;;
21420;SDS011;10871;50.144;8.428;2023-02-20T11:00:45;11.25;;;7.05;;
21420;SDS011;10871;50.144;8.428;2023-02-20T11:03:17;10.10;;;7.13;;
21420;SDS011;10871;50.144;8.428;2023-02-20T11:05:47;7.82;;;5.57;;
21420;SDS011;10871;50.144;8.428;2023-02-20T11:08:15;10.48;;;6.50;;
21420;SDS011;10871;50.144;8.428;2023-02-20T11:10:47;8.60;;;5.90;;
21420;SDS011;10871;50.144;8.428;2023-02-20T11:13:17;13.15;;;6.35;;
21420;SDS011;10871;50.144;8.428;2023-02-20T11:15:45;11.60;;;7.93;;
21420;SDS011;10871;50.144;8.428;2023-02-20T11:18:19;9.98;;;5.97;;
21420;SDS011;10871;50.144;8.428;2023-02-20T11:20:48;12.48;;;5.95;;
21420;SDS011;10871;50.144;8.428;2023-02-20T11:29:03;8.98;;;5.55;;
21420;SDS011;10871;50.144;8.428;2023-02-20T11:31:33;6.85;;;5.13;;
21420;SDS011;10871;50.144;8.428;2023-02-20T11:34:00;9.95;;;5.25;;
21420;SDS011;10871;50.144;8.428;2023-02-20T11:36:27;9.15;;;5.47;;
21420;SDS011;10871;50.144;8.428;2023-02-20T11:38:58;7.28;;;5.15;;
21420;SDS011;10871;50.144;8.428;2023-02-20T11:41:30;10.52;;;6.30;;
21420;SDS011;10871;50.144;8.428;2023-02-20T11:44:15;7.13;;;4.90;;
21420;SDS011;10871;50.144;8.428;2023-02-20T11:46:42;6.18;;;4.05;;
21420;SDS011;10871;50.144;8.428;2023-02-20T11:49:21;6.82;;;4.90;;
21420;SDS011;10871;50.144;8.428;2023-02-20T11:51:48;7.65;;;4.90;;
21420;SDS011;10871;50.144;8.428;2023-02-20T11:56:52;6.00;;;4.07;;
21420;SDS011;10871;50.144;8.428;2023-02-20T11:59:30;7.32;;;4.50;;
21420;SDS011;10871;50.144;8.428;2023-02-20T12:02:10;6.18;;;3.92;;
21420;SDS011;10871;50.144;8.428;2023-02-20T12:04:38;6.13;;;4.40;;
21420;SDS011;10871;50.144;8.428;2023-02-20T12:07:22;9.00;;;5.80;;
21420;SDS011;10871;50.144;8.428;2023-02-20T12:09:52;7.60;;;5.65;;
21420;SDS011;10871;50.144;8.428;2023-02-20T12:12:20;4.10;;;2.92;;
21420;SDS011;10871;50.144;8.428;2023-02-20T12:14:49;6.50;;;3.25;;
21420;SDS011;10871;50.144;8.428;2023-02-20T12:17:36;5.72;;;3.80;;
21420;SDS011;10871;50.144;8.428;2023-02-20T12:20:13;6.07;;;2.60;;
21420;SDS011;10871;50.144;8.428;2023-02-20T12:22:53;4.25;;;3.08;;
21420;SDS011;10871;50.144;8.428;2023-02-20T12:25:26;6.85;;;3.03;;
21420;SDS011;10871;50.144;8.428;2023-02-20T12:28:05;3.53;;;2.30;;
21420;SDS011;10871;50.144;8.428;2023-02-20T12:31:18;3.05;;;2.20;;
21420;SDS011;10871;50.144;8.428;2023-02-20T12:33:35;6.20;;;4.38;;
21420;SDS011;10871;50.144;8.428;2023-02-20T12:39:05;4.18;;;2.58;;
21420;SDS011;10871;50.144;8.428;2023-02-20T12:47:07;4.60;;;2.53;;
21420;SDS011;10871;50.144;8.428;2023-02-20T12:52:39;5.80;;;2.95;;
21420;SDS011;10871;50.144;8.428;2023-02-20T13:00:42;9.65;;;8.75;;
21420;SDS011;10871;50.144;8.428;2023-02-20T13:03:17;6.35;;;3.00;;
21420;SDS011;10871;50.144;8.428;2023-02-20T13:05:45;5.13;;;2.97;;
21420;SDS011;10871;50.144;8.428;2023-02-20T13:08:30;4.05;;;2.65;;
21420;SDS011;10871;50.144;8.428;2023-02-20T13:10:59;4.80;;;3.10;;
21420;SDS011;10871;50.144;8.428;2023-02-20T13:16:13;5.85;;;5.22;;
21420;SDS011;10871;50.144;8.428;2023-02-20T13:18:44;7.65;;;6.78;;
21420;SDS011;10871;50.144;8.428;2023-02-20T13:21:17;6.63;;;4.65;;
21420;SDS011;10871;50.144;8.428;2023-02-20T13:23:44;4.35;;;3.10;;
21420;SDS011;10871;50.144;8.428;2023-02-20T13:29:09;5.38;;;3.45;;
21420;SDS011;10871;50.144;8.428;2023-02-20T13:47:04;9.57;;;8.82;;
21420;SDS011;10871;50.144;8.428;2023-02-20T13:49:54;6.18;;;4.95;;
21420;SDS011;10871;50.144;8.428;2023-02-20T13:52:43;5.10;;;4.20;;
21420;SDS011;10871;50.144;8.428;2023-02-20T13:55:15;4.00;;;3.40;;
21420;SDS011;10871;50.144;8.428;2023-02-20T14:02:45;4.85;;;4.03;;
21420;SDS011;10871;50.144;8.428;2023-02-20T14:05:16;4.35;;;3.10;;
21420;SDS011;10871;50.144;8.428;2023-02-20T14:07:44;4.93;;;2.85;;
21420;SDS011;10871;50.144;8.428;2023-02-20T14:10:21;4.50;;;2.90;;
21420;SDS011;10871;50.144;8.428;2023-02-20T14:12:55;3.85;;;2.90;;
21420;SDS011;10871;50.144;8.428;2023-02-20T14:15:23;8.30;;;3.50;;
21420;SDS011;10871;50.144;8.428;2023-02-20T14:17:51;7.28;;;6.57;;
21420;SDS011;10871;50.144;8.428;2023-02-20T14:20:19;7.78;;;7.07;;
21420;SDS011;10871;50.144;8.428;2023-02-20T14:22:48;7.65;;;6.88;;
21420;SDS011;10871;50.144;8.428;2023-02-20T14:25:25;7.97;;;7.15;;
21420;SDS011;10871;50.144;8.428;2023-02-20T14:28:10;7.60;;;6.82;;
21420;SDS011;10871;50.144;8.428;2023-02-20T14:30:36;7.47;;;6.35;;
21420;SDS011;10871;50.144;8.428;2023-02-20T14:33:07;8.13;;;6.50;;
21420;SDS011;10871;50.144;8.428;2023-02-20T14:40:46;8.25;;;5.80;;
21420;SDS011;10871;50.144;8.428;2023-02-20T14:43:17;7.68;;;5.57;;
21420;SDS011;10871;50.144;8.428;2023-02-20T14:45:45;7.88;;;6.82;;
21420;SDS011;10871;50.144;8.428;2023-02-20T14:48:23;4.90;;;2.70;;
21420;SDS011;10871;50.144;8.428;2023-02-20T14:53:36;7.03;;;5.60;;
21420;SDS011;10871;50.144;8.428;2023-02-20T14:56:14;10.02;;;5.38;;
21420;SDS011;10871;50.144;8.428;2023-02-20T14:58:41;8.32;;;3.40;;
21420;SDS011;10871;50.144;8.428;2023-02-20T15:03:56;9.02;;;2.85;;
21420;SDS011;10871;50.144;8.428;2023-02-20T15:06:23;6.93;;;3.85;;
21420;SDS011;10871;50.144;8.428;2023-02-20T15:08:55;6.47;;;2.55;;
21420;SDS011;10871;50.144;8.428;2023-02-20T15:11:22;8.80;;;6.15;;
21420;SDS011;10871;50.144;8.428;2023-02-20T15:13:49;6.65;;;4.68;;
21420;SDS011;10871;50.144;8.428;2023-02-20T15:16:26;7.35;;;5.22;;
21420;SDS011;10871;50.144;8.428;2023-02-20T15:18:53;7.03;;;2.83;;
21420;SDS011;10871;50.144;8.428;2023-02-20T15:21:36;8.27;;;3.22;;
21420;SDS011;10871;50.144;8.428;2023-02-20T15:26:48;9.68;;;2.92;;
21420;SDS011;10871;50.144;8.428;2023-02-20T15:29:22;6.43;;;3.28;;
21420;SDS011;10871;50.144;8.428;2023-02-20T15:31:59;8.55;;;5.32;;
21420;SDS011;10871;50.144;8.428;2023-02-20T15:34:27;8.68;;;5.63;;
21420;SDS011;10871;50.144;8.428;2023-02-20T15:36:54;8.93;;;5.80;;
21420;SDS011;10871;50.144;8.428;2023-02-20T15:39:21;8.57;;;5.40;;
21420;SDS011;10871;50.144;8.428;2023-02-20T15:41:47;9.10;;;5.50;;
21420;SDS011;10871;50.144;8.428;2023-02-20T15:44:14;6.70;;;2.83;;
21420;SDS011;10871;50.144;8.428;2023-02-20T15:46:41;16.95;;;15.70;;
21420;SDS011;10871;50.144;8.428;2023-02-20T15:49:08;7.03;;;3.25;;
21420;SDS011;10871;50.144;8.428;2023-02-20T15:51:45;5.78;;;2.97;;
21420;SDS011;10871;50.144;8.428;2023-02-20T15:54:14;7.68;;;3.17;;
21420;SDS011;10871;50.144;8.428;2023-02-20T15:56:41;6.90;;;3.25;;
21420;SDS011;10871;50.144;8.428;2023-02-20T15:59:09;6.75;;;3.17;;
21420;SDS011;10871;50.144;8.428;2023-02-20T16:01:37;7.50;;;2.90;;
21420;SDS011;10871;50.144;8.428;2023-02-20T16:04:05;8.18;;;2.78;;
21420;SDS011;10871;50.144;8.428;2023-02-20T16:06:31;5.95;;;2.20;;
21420;SDS011;10871;50.144;8.428;2023-02-20T16:08:58;8.63;;;3.40;;
21420;SDS011;10871;50.144;8.428;2023-02-20T16:11:34;6.07;;;5.47;;
21420;SDS011;10871;50.144;8.428;2023-02-20T16:14:02;7.60;;;3.00;;
21420;SDS011;10871;50.144;8.428;2023-02-20T16:18:57;6.40;;;2.88;;
21420;SDS011;10871;50.144;8.428;2023-02-20T16:21:24;6.60;;;2.10;;
21420;SDS011;10871;50.144;8.428;2023-02-20T16:23:51;6.60;;;5.57;;
21420;SDS011;10871;50.144;8.428;2023-02-20T16:26:18;6.97;;;2.90;;
21420;SDS011;10871;50.144;8.428;2023-02-20T16:28:51;4.50;;;3.30;;
21420;SDS011;10871;50.144;8.428;2023-02-20T16:31:18;4.97;;;3.23;;
21420;SDS011;10871;50.144;8.428;2023-02-20T16:33:45;6.05;;;4.15;;
21420;SDS011;10871;50.144;8.428;2023-02-20T16:36:12;4.53;;;2.50;;
21420;SDS011;10871;50.144;8.428;2023-02-20T16:38:49;6.05;;;2.63;;
21420;SDS011;10871;50.144;8.428;2023-02-20T16:41:19;4.75;;;2.55;;
21420;SDS011;10871;50.144;8.428;2023-02-20T16:43:47;4.40;;;2.35;;
21420;SDS011;10871;50.144;8.428;2023-02-20T16:46:14;4.53;;;2.08;;
21420;SDS011;10871;50.144;8.428;2023-02-20T16:48:49;5.18;;;2.70;;